Weather at Winchester Airport [CLOSED]

Public forecast

Using degrees Celsius for public forecast. Weather courtesy of forecast.io.

Closest aviation weather report (METAR) to Winchester Airport

Closest report is Massena International Richards Field, 20.5 nm (38.0 km) ESE. Retrieved 2021/03/02 17:53 UTC (1 hour ago):

KMSS 021753Z AUTO 26015G23KT 10SM CLR M11/M22 A3019 RMK AO2 PK WND 27027/1701 SLP233 T11061217 11106 21172 58019

Closest aviation forecast (TAF) to Winchester Airport

Closest forecast is Massena International Richards Field, 20.5 nm (38.0 km) ESE. Retrieved 2021/03/02 18:33 UTC (49 minutes ago):

TAF KMSS 021729Z 0218/0318 26015G26KT P6SM SKC FM030100 22006KT 1SM -SN BR BKN028 OVC040 FM031100 23010G16KT P6SM VCSH OVC021